sensor_id;sensor_type;location;lat;lon;timestamp;P1;durP1;ratioP1;P2;durP2;ratioP2
73333;SDS011;61561;43.538;-5.670;2022-08-19T09:22:43;10.65;;;4.70;;
73333;SDS011;61561;43.538;-5.670;2022-08-19T09:25:12;12.98;;;5.20;;
73333;SDS011;61561;43.538;-5.670;2022-08-19T09:28:02;10.07;;;5.28;;
73333;SDS011;61561;43.538;-5.670;2022-08-19T09:30:30;10.43;;;5.17;;
73333;SDS011;61561;43.538;-5.670;2022-08-19T09:32:59;15.25;;;4.93;;
73333;SDS011;61561;43.538;-5.670;2022-08-19T09:35:27;11.75;;;4.95;;
73333;SDS011;61561;43.538;-5.670;2022-08-19T09:38:02;10.43;;;4.93;;
73333;SDS011;61561;43.538;-5.670;2022-08-19T09:40:36;13.95;;;4.55;;
73333;SDS011;61561;43.538;-5.670;2022-08-19T09:43:03;11.87;;;4.83;;
73333;SDS011;61561;43.538;-5.670;2022-08-19T09:45:39;9.35;;;4.30;;
73333;SDS011;61561;43.538;-5.670;2022-08-19T09:48:07;10.25;;;3.97;;
73333;SDS011;61561;43.538;-5.670;2022-08-19T09:50:34;10.20;;;4.10;;
73333;SDS011;61561;43.538;-5.670;2022-08-19T09:53:01;9.00;;;3.85;;
73333;SDS011;61561;43.538;-5.670;2022-08-19T09:55:30;12.07;;;4.73;;
73333;SDS011;61561;43.538;-5.670;2022-08-19T10:05:42;8.95;;;4.20;;
73333;SDS011;61561;43.538;-5.670;2022-08-19T10:08:21;10.80;;;4.38;;
73333;SDS011;61561;43.538;-5.670;2022-08-19T10:10:51;11.57;;;4.93;;
73333;SDS011;61561;43.538;-5.670;2022-08-19T10:13:19;11.98;;;5.30;;
73333;SDS011;61561;43.538;-5.670;2022-08-19T11:50:48;7.43;;;3.63;;
73333;SDS011;61561;43.538;-5.670;2022-08-19T11:53:19;9.30;;;3.40;;
73333;SDS011;61561;43.538;-5.670;2022-08-19T11:58:52;9.20;;;3.67;;
73333;SDS011;61561;43.538;-5.670;2022-08-19T12:01:22;9.18;;;3.75;;
73333;SDS011;61561;43.538;-5.670;2022-08-19T12:14:46;7.82;;;3.70;;
73333;SDS011;61561;43.538;-5.670;2022-08-19T12:17:12;9.93;;;3.65;;
73333;SDS011;61561;43.538;-5.670;2022-08-19T12:19:38;10.38;;;4.07;;
73333;SDS011;61561;43.538;-5.670;2022-08-19T12:22:07;10.33;;;3.60;;
73333;SDS011;61561;43.538;-5.670;2022-08-19T12:24:33;11.82;;;4.22;;
73333;SDS011;61561;43.538;-5.670;2022-08-19T12:27:02;10.23;;;3.80;;
73333;SDS011;61561;43.538;-5.670;2022-08-19T12:29:28;8.52;;;3.70;;
73333;SDS011;61561;43.538;-5.670;2022-08-19T12:31:55;8.88;;;3.55;;
73333;SDS011;61561;43.538;-5.670;2022-08-19T12:34:27;13.10;;;4.10;;
73333;SDS011;61561;43.538;-5.670;2022-08-19T15:22:57;10.68;;;3.55;;
73333;SDS011;61561;43.538;-5.670;2022-08-19T15:25:26;9.05;;;2.90;;
73333;SDS011;61561;43.538;-5.670;2022-08-19T15:31:08;8.40;;;3.10;;
73333;SDS011;61561;43.538;-5.670;2022-08-19T15:33:36;6.70;;;2.72;;
73333;SDS011;61561;43.538;-5.670;2022-08-19T15:36:05;9.43;;;2.67;;
73333;SDS011;61561;43.538;-5.670;2022-08-19T15:38:32;7.47;;;3.20;;
73333;SDS011;61561;43.538;-5.670;2022-08-19T15:41:03;8.60;;;3.00;;
73333;SDS011;61561;43.538;-5.670;2022-08-19T15:43:48;7.28;;;2.40;;
73333;SDS011;61561;43.538;-5.670;2022-08-19T15:46:26;6.80;;;2.90;;
73333;SDS011;61561;43.538;-5.670;2022-08-19T15:48:53;7.55;;;2.70;;
73333;SDS011;61561;43.538;-5.670;2022-08-19T15:51:21;5.75;;;2.35;;
73333;SDS011;61561;43.538;-5.670;2022-08-19T15:53:53;6.10;;;2.47;;
73333;SDS011;61561;43.538;-5.670;2022-08-19T15:56:19;6.95;;;2.75;;
73333;SDS011;61561;43.538;-5.670;2022-08-19T16:02:09;6.50;;;2.20;;
73333;SDS011;61561;43.538;-5.670;2022-08-19T16:04:57;6.43;;;2.45;;
73333;SDS011;61561;43.538;-5.670;2022-08-19T16:07:42;7.50;;;2.70;;
73333;SDS011;61561;43.538;-5.670;2022-08-19T16:10:09;7.07;;;2.58;;
73333;SDS011;61561;43.538;-5.670;2022-08-19T16:12:35;10.98;;;3.28;;
73333;SDS011;61561;43.538;-5.670;2022-08-19T16:15:03;7.97;;;2.40;;
73333;SDS011;61561;43.538;-5.670;2022-08-19T16:17:30;7.95;;;2.28;;
73333;SDS011;61561;43.538;-5.670;2022-08-19T16:19:57;7.32;;;2.40;;
73333;SDS011;61561;43.538;-5.670;2022-08-19T16:22:52;7.77;;;2.47;;
73333;SDS011;61561;43.538;-5.670;2022-08-19T16:25:24;6.53;;;2.25;;
73333;SDS011;61561;43.538;-5.670;2022-08-19T16:27:53;8.98;;;2.78;;
73333;SDS011;61561;43.538;-5.670;2022-08-19T16:30:21;8.63;;;2.80;;
73333;SDS011;61561;43.538;-5.670;2022-08-19T16:35:36;7.37;;;2.30;;
73333;SDS011;61561;43.538;-5.670;2022-08-19T16:38:05;6.95;;;2.25;;
73333;SDS011;61561;43.538;-5.670;2022-08-19T16:40:35;6.50;;;2.58;;
73333;SDS011;61561;43.538;-5.670;2022-08-19T16:43:02;9.18;;;2.42;;
73333;SDS011;61561;43.538;-5.670;2022-08-19T16:45:28;6.57;;;2.30;;
73333;SDS011;61561;43.538;-5.670;2022-08-19T16:47:54;7.20;;;2.20;;
73333;SDS011;61561;43.538;-5.670;2022-08-19T16:50:22;7.78;;;2.55;;
73333;SDS011;61561;43.538;-5.670;2022-08-19T16:52:50;6.57;;;2.50;;
73333;SDS011;61561;43.538;-5.670;2022-08-19T16:55:16;6.80;;;2.38;;
73333;SDS011;61561;43.538;-5.670;2022-08-19T16:57:44;7.75;;;2.40;;
73333;SDS011;61561;43.538;-5.670;2022-08-19T17:00:10;8.63;;;2.03;;
73333;SDS011;61561;43.538;-5.670;2022-08-19T17:02:41;8.55;;;2.22;;
73333;SDS011;61561;43.538;-5.670;2022-08-19T17:08:14;8.02;;;2.58;;
73333;SDS011;61561;43.538;-5.670;2022-08-19T17:10:45;7.60;;;2.17;;
73333;SDS011;61561;43.538;-5.670;2022-08-19T17:13:16;7.73;;;2.17;;
73333;SDS011;61561;43.538;-5.670;2022-08-19T17:15:42;8.18;;;2.40;;
73333;SDS011;61561;43.538;-5.670;2022-08-19T17:18:13;7.65;;;2.53;;
73333;SDS011;61561;43.538;-5.670;2022-08-19T17:20:40;7.47;;;2.70;;
73333;SDS011;61561;43.538;-5.670;2022-08-19T17:23:07;6.90;;;2.00;;
73333;SDS011;61561;43.538;-5.670;2022-08-19T17:25:36;5.70;;;2.50;;
73333;SDS011;61561;43.538;-5.670;2022-08-19T17:28:09;5.30;;;1.73;;
73333;SDS011;61561;43.538;-5.670;2022-08-19T17:30:43;6.43;;;2.28;;
73333;SDS011;61561;43.538;-5.670;2022-08-19T17:33:13;8.25;;;2.83;;
73333;SDS011;61561;43.538;-5.670;2022-08-19T17:35:42;6.82;;;2.45;;
73333;SDS011;61561;43.538;-5.670;2022-08-19T17:38:15;6.13;;;1.80;;
73333;SDS011;61561;43.538;-5.670;2022-08-19T17:40:48;6.65;;;2.00;;
73333;SDS011;61561;43.538;-5.670;2022-08-19T17:43:20;9.20;;;2.10;;
73333;SDS011;61561;43.538;-5.670;2022-08-19T17:45:50;5.93;;;2.50;;
73333;SDS011;61561;43.538;-5.670;2022-08-19T17:48:16;7.45;;;2.38;;
73333;SDS011;61561;43.538;-5.670;2022-08-19T17:50:42;5.93;;;2.00;;
73333;SDS011;61561;43.538;-5.670;2022-08-19T17:53:09;6.18;;;2.10;;
73333;SDS011;61561;43.538;-5.670;2022-08-19T17:55:35;5.72;;;2.17;;
73333;SDS011;61561;43.538;-5.670;2022-08-19T17:58:03;6.13;;;2.10;;
73333;SDS011;61561;43.538;-5.670;2022-08-19T18:00:32;7.00;;;2.00;;
73333;SDS011;61561;43.538;-5.670;2022-08-19T18:02:59;6.88;;;2.40;;
73333;SDS011;61561;43.538;-5.670;2022-08-19T18:05:28;7.18;;;2.33;;
73333;SDS011;61561;43.538;-5.670;2022-08-19T18:07:57;9.60;;;2.22;;
73333;SDS011;61561;43.538;-5.670;2022-08-19T18:10:25;6.47;;;2.63;;
73333;SDS011;61561;43.538;-5.670;2022-08-19T18:12:52;6.03;;;1.90;;
73333;SDS011;61561;43.538;-5.670;2022-08-19T18:15:21;8.32;;;1.95;;
73333;SDS011;61561;43.538;-5.670;2022-08-19T18:17:47;6.43;;;1.90;;
73333;SDS011;61561;43.538;-5.670;2022-08-19T18:20:14;5.60;;;2.10;;
73333;SDS011;61561;43.538;-5.670;2022-08-19T18:51:08;7.63;;;2.20;;
73333;SDS011;61561;43.538;-5.670;2022-08-19T18:53:36;7.57;;;2.00;;
73333;SDS011;61561;43.538;-5.670;2022-08-19T18:59:37;8.40;;;2.20;;
73333;SDS011;61561;43.538;-5.670;2022-08-19T19:02:10;5.88;;;1.67;;
73333;SDS011;61561;43.538;-5.670;2022-08-19T19:04:38;6.43;;;2.30;;
73333;SDS011;61561;43.538;-5.670;2022-08-19T19:07:20;7.57;;;2.03;;
73333;SDS011;61561;43.538;-5.670;2022-08-19T19:09:47;7.63;;;2.00;;
73333;SDS011;61561;43.538;-5.670;2022-08-19T19:12:34;5.70;;;1.80;;
73333;SDS011;61561;43.538;-5.670;2022-08-19T19:15:08;4.57;;;1.58;;
73333;SDS011;61561;43.538;-5.670;2022-08-19T19:20:59;6.57;;;1.80;;
73333;SDS011;61561;43.538;-5.670;2022-08-19T19:23:25;5.32;;;1.70;;
73333;SDS011;61561;43.538;-5.670;2022-08-19T19:25:51;7.60;;;1.80;;
73333;SDS011;61561;43.538;-5.670;2022-08-19T19:28:17;6.40;;;1.83;;
73333;SDS011;61561;43.538;-5.670;2022-08-19T19:30:49;7.20;;;2.28;;
73333;SDS011;61561;43.538;-5.670;2022-08-19T20:18:01;6.60;;;1.73;;
73333;SDS011;61561;43.538;-5.670;2022-08-19T20:20:31;8.33;;;1.57;;
73333;SDS011;61561;43.538;-5.670;2022-08-19T20:22:58;7.47;;;1.50;;
73333;SDS011;61561;43.538;-5.670;2022-08-19T20:25:26;5.40;;;1.52;;
73333;SDS011;61561;43.538;-5.670;2022-08-19T20:27:53;6.30;;;1.42;;
73333;SDS011;61561;43.538;-5.670;2022-08-19T20:30:20;4.93;;;1.30;;
73333;SDS011;61561;43.538;-5.670;2022-08-19T20:32:47;6.68;;;1.70;;
73333;SDS011;61561;43.538;-5.670;2022-08-19T20:35:14;5.95;;;1.33;;
73333;SDS011;61561;43.538;-5.670;2022-08-19T20:38:06;4.75;;;1.30;;
73333;SDS011;61561;43.538;-5.670;2022-08-19T20:43:45;5.28;;;1.42;;
73333;SDS011;61561;43.538;-5.670;2022-08-19T20:46:15;5.22;;;1.90;;
73333;SDS011;61561;43.538;-5.670;2022-08-19T20:48:44;4.60;;;1.40;;
73333;SDS011;61561;43.538;-5.670;2022-08-19T20:51:12;4.53;;;1.52;;
